createdAt,value
2019-02-18T00:00:53.829Z,85.81
2019-02-18T00:01:53.844Z,86.57
2019-02-18T00:02:53.867Z,87.10
2019-02-18T00:03:53.875Z,87.57
2019-02-18T00:04:53.894Z,87.48
2019-02-18T00:05:53.915Z,87.76
2019-02-18T00:06:53.929Z,87.48
2019-02-18T00:07:53.945Z,88.15
2019-02-18T00:08:53.961Z,88.24
2019-02-18T00:09:53.977Z,88.76
2019-02-18T00:10:53.991Z,89.33
2019-02-18T00:11:54.006Z,89.62
2019-02-18T00:12:54.024Z,89.72
2019-02-18T00:13:54.042Z,90.19
2019-02-18T00:14:54.053Z,90.38
2019-02-18T00:15:54.071Z,90.85
2019-02-18T00:16:54.087Z,91.14
2019-02-18T00:17:54.100Z,91.14
2019-02-18T00:18:54.116Z,91.04
2019-02-18T00:19:54.135Z,91.33
2019-02-18T00:20:54.149Z,91.33
2019-02-18T00:21:54.169Z,91.33
2019-02-18T00:22:54.180Z,91.33
2019-02-18T00:23:54.197Z,91.14
2019-02-18T00:24:54.215Z,91.33
2019-02-18T00:25:54.237Z,90.66
2019-02-18T00:26:54.253Z,89.86
2019-02-18T00:27:54.269Z,88.62
2019-02-18T00:28:54.280Z,87.57
2019-02-18T00:29:54.296Z,87.01
2019-02-18T00:30:54.308Z,86.34
2019-02-18T00:31:54.324Z,86.53
2019-02-18T00:32:54.340Z,86.43
2019-02-18T00:33:54.360Z,86.24
2019-02-18T00:34:54.380Z,86.43
2019-02-18T00:35:54.388Z,86.63
2019-02-18T00:36:54.404Z,87.48
2019-02-18T00:37:54.419Z,88.24
2019-02-18T00:38:54.436Z,88.62
2019-02-18T00:39:54.458Z,89.09
2019-02-18T00:40:54.475Z,89.53
2019-02-18T00:41:54.483Z,89.05
2019-02-18T00:42:54.500Z,89.43
2019-02-18T00:43:54.519Z,89.53
2019-02-18T00:44:54.533Z,89.90
2019-02-18T00:45:54.554Z,90.28
2019-02-18T00:46:54.565Z,90.47
2019-02-18T00:47:54.579Z,90.95
2019-02-18T00:48:54.597Z,91.04
2019-02-18T00:49:54.614Z,90.90
2019-02-18T00:50:54.679Z,91.09
2019-02-18T00:51:54.644Z,91.33
2019-02-18T00:52:54.657Z,91.99
2019-02-18T00:53:54.679Z,91.94
2019-02-18T00:54:54.689Z,92.04
2019-02-18T00:55:54.705Z,92.71
2019-02-18T00:56:54.727Z,92.42
2019-02-18T00:57:54.736Z,92.04
2019-02-18T00:58:54.753Z,91.89
2019-02-18T00:59:54.771Z,91.80
2019-02-18T01:00:54.787Z,91.89
2019-02-18T01:01:54.806Z,91.71
2019-02-18T01:02:54.818Z,91.52
2019-02-18T01:03:54.832Z,91.19
2019-02-18T01:04:54.851Z,91.14
2019-02-18T01:05:54.869Z,91.04
2019-02-18T01:06:54.885Z,91.42
2019-02-18T01:07:54.895Z,91.71
2019-02-18T01:08:54.915Z,91.89
2019-02-18T01:09:54.928Z,91.80
2019-02-18T01:10:54.944Z,91.89
2019-02-18T01:11:54.963Z,91.80
2019-02-18T01:12:54.975Z,91.47
2019-02-18T01:13:54.997Z,91.75
2019-02-18T01:14:55.010Z,91.56
2019-02-18T01:15:55.020Z,92.04
2019-02-18T01:16:55.036Z,92.04
2019-02-18T01:17:55.050Z,91.85
2019-02-18T01:18:55.069Z,91.80
2019-02-18T01:19:55.089Z,91.99
2019-02-18T01:20:55.101Z,91.99
2019-02-18T01:21:55.114Z,91.89
2019-02-18T01:22:55.139Z,91.80
2019-02-18T01:23:55.153Z,91.89
2019-02-18T01:24:55.161Z,91.80
2019-02-18T01:25:55.186Z,91.24
2019-02-18T01:26:55.194Z,90.95
2019-02-18T01:27:55.210Z,90.85
2019-02-18T01:28:55.231Z,91.14
2019-02-18T01:29:55.238Z,91.04
2019-02-18T01:30:55.263Z,90.57
2019-02-18T01:31:55.274Z,91.33
2019-02-18T01:32:55.289Z,90.57
2019-02-18T01:33:55.303Z,90.85
2019-02-18T01:34:55.327Z,90.76
2019-02-18T01:35:55.335Z,90.85
2019-02-18T01:36:55.351Z,91.24
2019-02-18T01:37:55.361Z,91.04
2019-02-18T01:38:55.378Z,90.95
2019-02-18T01:39:55.395Z,91.33
2019-02-18T01:40:55.412Z,91.19
2019-02-18T01:41:55.426Z,91.75
2019-02-18T01:42:55.441Z,91.85
2019-02-18T01:43:55.459Z,91.56
2019-02-18T01:44:55.472Z,91.56
2019-02-18T01:45:55.495Z,91.94
2019-02-18T01:46:55.507Z,91.47
2019-02-18T01:47:55.518Z,92.04
2019-02-18T01:48:55.536Z,91.75
2019-02-18T01:49:55.552Z,92.14
2019-02-18T01:50:55.566Z,92.04
2019-02-18T01:51:55.588Z,92.52
2019-02-18T01:52:55.599Z,92.80
2019-02-18T01:53:55.615Z,92.90
2019-02-18T01:54:55.629Z,92.80
2019-02-18T01:55:55.644Z,92.80
2019-02-18T01:56:55.657Z,92.80
2019-02-18T01:57:55.675Z,92.90
2019-02-18T01:58:55.695Z,93.27
2019-02-18T01:59:55.703Z,93.37
2019-02-18T02:00:55.722Z,92.99
2019-02-18T02:01:55.737Z,93.18
2019-02-18T02:02:55.751Z,93.27
2019-02-18T02:03:55.773Z,93.75
2019-02-18T02:04:55.783Z,93.75
2019-02-18T02:05:55.856Z,94.03
2019-02-18T02:06:55.813Z,94.03
2019-02-18T02:07:56.786Z,93.56
2019-02-18T02:08:55.843Z,93.37
2019-02-18T02:09:55.865Z,92.90
2019-02-18T02:10:55.882Z,93.08
2019-02-18T02:11:55.888Z,92.99
2019-02-18T02:12:55.905Z,93.27
2019-02-18T02:13:55.918Z,93.84
2019-02-18T02:14:55.936Z,93.94
2019-02-18T02:15:55.955Z,93.84
2019-02-18T02:16:55.964Z,93.65
2019-02-18T02:17:55.982Z,94.13
2019-02-18T02:18:55.999Z,94.51
2019-02-18T02:19:56.013Z,94.42
2019-02-18T02:20:56.034Z,94.60
2019-02-18T02:21:56.043Z,94.51
2019-02-18T02:22:56.059Z,94.70
2019-02-18T02:23:56.073Z,94.65
2019-02-18T02:24:56.090Z,94.93
2019-02-18T02:25:56.151Z,95.31
2019-02-18T02:26:56.121Z,95.41
2019-02-18T02:27:56.136Z,95.41
2019-02-18T02:28:56.153Z,95.69
2019-02-18T02:29:56.167Z,95.79
2019-02-18T02:30:56.182Z,96.08
2019-02-18T02:31:56.199Z,95.88
2019-02-18T02:32:56.220Z,96.17
2019-02-18T02:33:56.226Z,96.73
2019-02-18T02:34:56.243Z,96.36
2019-02-18T02:35:56.264Z,96.73
2019-02-18T02:36:56.274Z,96.64
2019-02-18T02:38:07.064Z,96.17
2019-02-18T02:38:56.307Z,96.55
2019-02-18T02:39:56.330Z,97.12
2019-02-18T02:40:56.337Z,96.92
2019-02-18T02:41:56.353Z,96.92
2019-02-18T02:42:56.364Z,97.12
2019-02-18T02:43:56.383Z,97.02
2019-02-18T02:44:56.398Z,97.21
2019-02-18T02:45:56.417Z,97.21
2019-02-18T02:46:56.434Z,96.92
2019-02-18T02:47:56.456Z,96.92
2019-02-18T02:48:56.459Z,97.12
2019-02-18T02:49:56.480Z,96.92
2019-02-18T02:50:56.490Z,96.83
2019-02-18T02:51:56.505Z,97.31
2019-02-18T02:52:56.523Z,96.92
2019-02-18T02:53:56.534Z,96.92
2019-02-18T02:54:56.557Z,97.02
2019-02-18T02:55:56.569Z,97.12
2019-02-18T02:56:56.588Z,97.69
2019-02-18T02:57:56.593Z,97.59
2019-02-18T02:58:56.612Z,97.69
2019-02-18T02:59:56.633Z,97.59
2019-02-18T03:00:56.642Z,97.69
2019-02-18T03:01:56.656Z,97.02
2019-02-18T03:02:56.680Z,97.02
2019-02-18T03:03:56.693Z,97.12
2019-02-18T03:04:56.701Z,97.69
2019-02-18T03:05:56.717Z,97.31
2019-02-18T03:06:56.741Z,97.50
2019-02-18T03:07:56.744Z,97.12
2019-02-18T03:08:56.762Z,96.73
2019-02-18T03:09:56.775Z,97.02
2019-02-18T03:10:56.793Z,96.73
2019-02-18T03:11:56.844Z,97.12
2019-02-18T03:12:56.821Z,97.21
2019-02-18T03:13:56.836Z,96.73
2019-02-18T03:14:56.854Z,97.21
2019-02-18T03:15:56.868Z,97.02
2019-02-18T03:16:56.881Z,96.92
2019-02-18T03:17:56.898Z,97.21
2019-02-18T03:18:56.911Z,97.02
2019-02-18T03:19:56.926Z,97.12
2019-02-18T03:20:56.948Z,96.36
2019-02-18T03:21:56.965Z,96.36
2019-02-18T03:22:56.980Z,97.12
2019-02-18T03:23:56.997Z,96.73
2019-02-18T03:24:57.001Z,96.55
2019-02-18T03:25:57.017Z,96.45
2019-02-18T03:26:57.033Z,95.79
2019-02-18T03:27:57.048Z,95.88
2019-02-18T03:28:57.120Z,96.45
2019-02-18T03:29:57.084Z,96.45
2019-02-18T03:30:57.095Z,96.17
2019-02-18T03:31:57.123Z,96.45
2019-02-18T03:32:57.122Z,96.36
2019-02-18T03:33:57.139Z,96.45
2019-02-18T03:34:57.152Z,97.12
2019-02-18T03:35:57.167Z,97.12
2019-02-18T03:36:57.181Z,97.02
2019-02-18T03:37:57.202Z,96.83
2019-02-18T03:38:57.216Z,96.92
2019-02-18T03:39:57.241Z,96.92
2019-02-18T03:41:03.280Z,96.83
2019-02-18T03:41:57.258Z,97.21
2019-02-18T03:42:57.270Z,97.40
2019-02-18T03:43:57.288Z,97.02
2019-02-18T03:44:57.303Z,97.21
2019-02-18T03:45:57.321Z,97.59
2019-02-18T03:46:57.332Z,97.69
2019-02-18T03:47:57.345Z,97.59
2019-02-18T03:48:57.360Z,97.69
2019-02-18T03:49:57.377Z,97.59
2019-02-18T03:50:57.391Z,96.83
2019-02-18T03:51:57.409Z,97.12
2019-02-18T03:52:57.423Z,96.92
2019-02-18T03:53:57.441Z,96.36
2019-02-18T03:54:57.453Z,96.55
2019-02-18T03:55:57.470Z,96.55
2019-02-18T03:56:57.482Z,97.12
2019-02-18T03:57:57.500Z,96.55
2019-02-18T03:58:57.511Z,96.36
2019-02-18T03:59:57.525Z,95.60
2019-02-18T04:00:57.543Z,95.31
2019-02-18T04:01:57.578Z,95.31
2019-02-18T04:02:57.578Z,95.12
2019-02-18T04:03:57.583Z,94.46
2019-02-18T04:04:57.605Z,94.74
2019-02-18T04:05:57.613Z,94.84
2019-02-18T04:06:57.631Z,95.31
2019-02-18T04:07:57.650Z,95.22
2019-02-18T04:08:57.668Z,95.22
2019-02-18T04:09:57.672Z,95.22
2019-02-18T04:10:57.697Z,95.69
2019-02-18T04:11:57.703Z,95.50
2019-02-18T04:12:57.721Z,95.36
2019-02-18T04:13:57.829Z,95.93
2019-02-18T04:14:57.748Z,96.31
2019-02-18T04:15:57.762Z,97.16
2019-02-18T04:16:57.779Z,96.97
2019-02-18T04:17:57.793Z,97.07
2019-02-18T04:18:57.808Z,96.59
2019-02-18T04:19:57.824Z,96.50
2019-02-18T04:20:57.844Z,96.78
2019-02-18T04:21:57.852Z,96.88
2019-02-18T04:22:57.867Z,96.88
2019-02-18T04:23:57.888Z,97.26
2019-02-18T04:24:57.899Z,97.64
2019-02-18T04:25:57.911Z,97.54
2019-02-18T04:26:57.935Z,97.45
2019-02-18T04:27:57.941Z,97.35
2019-02-18T04:28:57.957Z,97.45
2019-02-18T04:29:57.969Z,97.83
2019-02-18T04:30:57.984Z,97.45
2019-02-18T04:31:58.007Z,97.73
2019-02-18T04:32:58.013Z,97.31
2019-02-18T04:33:58.037Z,97.07
2019-02-18T04:34:58.044Z,96.88
2019-02-18T04:35:58.057Z,96.88
2019-02-18T04:36:58.075Z,96.78
2019-02-18T04:37:58.086Z,97.26
2019-02-18T04:38:58.102Z,96.88
2019-02-18T04:39:58.118Z,96.97
2019-02-18T04:40:58.141Z,97.07
2019-02-18T04:41:58.157Z,96.97
2019-02-18T04:42:58.162Z,97.26
2019-02-18T04:43:58.176Z,97.07
2019-02-18T04:44:58.196Z,97.64
2019-02-18T04:45:58.207Z,97.54
2019-02-18T04:46:58.226Z,97.64
2019-02-18T04:47:58.239Z,97.83
2019-02-18T04:48:58.248Z,97.64
2019-02-18T04:49:58.264Z,97.83
2019-02-18T04:50:58.276Z,98.30
2019-02-18T04:51:58.291Z,98.25
2019-02-18T04:52:58.316Z,98.39
2019-02-18T04:53:58.323Z,98.25
2019-02-18T04:54:58.343Z,98.25
2019-02-18T04:55:58.356Z,98.87
2019-02-18T04:56:58.365Z,98.82
2019-02-18T04:57:58.380Z,98.72
2019-02-18T04:58:58.397Z,98.72
2019-02-18T04:59:58.424Z,98.82
2019-02-18T05:00:58.426Z,98.63
2019-02-18T05:01:58.437Z,98.72
2019-02-18T05:02:58.470Z,98.82
2019-02-18T05:03:58.498Z,98.44
2019-02-18T05:04:58.482Z,98.82
2019-02-18T05:05:58.497Z,99.10
2019-02-18T05:06:58.510Z,98.82
2019-02-18T05:07:58.536Z,99.01
2019-02-18T05:09:05.408Z,99.10
2019-02-18T05:09:58.553Z,98.91
2019-02-18T05:10:58.568Z,98.63
2019-02-18T05:11:58.585Z,98.87
2019-02-18T05:12:58.599Z,98.87
2019-02-18T05:13:58.612Z,98.96
2019-02-18T05:14:58.631Z,98.96
2019-02-18T05:15:58.646Z,98.87
2019-02-18T05:16:58.655Z,98.96
2019-02-18T05:17:58.671Z,99.06
2019-02-18T05:18:58.687Z,98.87
2019-02-18T05:19:58.701Z,98.96
2019-02-18T05:20:58.716Z,99.06
2019-02-18T05:21:58.727Z,99.15
2019-02-18T05:22:58.754Z,98.87
2019-02-18T05:23:58.765Z,98.87
2019-02-18T05:24:58.771Z,98.39
2019-02-18T05:25:58.794Z,98.87
2019-02-18T05:26:58.800Z,98.77
2019-02-18T05:27:58.819Z,98.87
2019-02-18T05:28:58.829Z,98.58
2019-02-18T05:29:58.853Z,99.15
2019-02-18T05:30:58.863Z,98.96
2019-02-18T05:31:58.873Z,99.25
2019-02-18T05:32:58.890Z,98.96
2019-02-18T05:33:58.911Z,99.15
2019-02-18T05:34:58.920Z,98.68
2019-02-18T05:35:58.982Z,98.77
2019-02-18T05:36:58.952Z,98.77
2019-02-18T05:37:58.962Z,98.68
2019-02-18T05:38:58.976Z,98.58
2019-02-18T05:39:58.989Z,98.96
2019-02-18T05:40:59.004Z,98.49
2019-02-18T05:41:59.026Z,97.64
2019-02-18T05:42:59.035Z,96.92
2019-02-18T05:43:59.057Z,96.64
2019-02-18T05:44:59.064Z,96.26
2019-02-18T05:45:59.079Z,96.78
2019-02-18T05:46:59.343Z,96.50
2019-02-18T05:47:59.105Z,96.97
2019-02-18T05:48:59.125Z,96.97
2019-02-18T05:49:59.146Z,97.64
2019-02-18T05:50:59.149Z,97.64
2019-02-18T05:51:59.164Z,97.83
2019-02-18T05:52:59.183Z,97.54
2019-02-18T05:53:59.199Z,97.92
2019-02-18T05:54:59.207Z,98.21
2019-02-18T05:55:59.222Z,98.21
2019-02-18T05:56:59.243Z,98.49
2019-02-18T05:57:59.251Z,98.21
2019-02-18T05:58:59.269Z,98.21
2019-02-18T05:59:59.287Z,98.39
2019-02-18T06:00:59.297Z,98.68
2019-02-18T06:01:59.309Z,98.68
2019-02-18T06:02:59.328Z,98.87
2019-02-18T06:04:00.153Z,98.87
2019-02-18T06:04:59.354Z,98.58
2019-02-18T06:05:59.392Z,98.77
2019-02-18T06:06:59.390Z,98.96
2019-02-18T06:07:59.397Z,98.68
2019-02-18T06:08:59.411Z,99.25
2019-02-18T06:09:59.433Z,99.15
2019-02-18T06:10:59.453Z,98.87
2019-02-18T06:11:59.463Z,98.77
2019-02-18T06:12:59.472Z,98.77
2019-02-18T06:13:59.483Z,98.49
2019-02-18T06:14:59.498Z,98.68
2019-02-18T06:15:59.519Z,98.87
2019-02-18T06:16:59.528Z,99.06
2019-02-18T06:17:59.542Z,98.30
2019-02-18T06:18:59.556Z,98.39
2019-02-18T06:19:59.571Z,98.49
2019-02-18T06:20:59.594Z,98.30
2019-02-18T06:21:59.601Z,98.87
2019-02-18T06:22:59.628Z,98.87
2019-02-18T06:23:59.639Z,98.87
2019-02-18T06:24:59.646Z,98.77
2019-02-18T06:25:59.670Z,98.87
2019-02-18T06:26:59.873Z,98.87
2019-02-18T06:27:59.693Z,98.68
2019-02-18T06:28:59.702Z,98.58
2019-02-18T06:29:59.718Z,98.68
2019-02-18T06:30:59.733Z,98.58
2019-02-18T06:31:59.750Z,98.68
2019-02-18T06:33:01.151Z,98.49
2019-02-18T06:33:59.777Z,98.21
2019-02-18T06:34:59.792Z,97.64
2019-02-18T06:35:59.811Z,97.73
2019-02-18T06:36:59.819Z,97.54
2019-02-18T06:37:59.836Z,96.97
2019-02-18T06:38:59.848Z,97.16
2019-02-18T06:39:59.865Z,97.35
2019-02-18T06:40:59.877Z,97.26
2019-02-18T06:41:59.896Z,97.07
2019-02-18T06:42:59.907Z,97.07
2019-02-18T06:43:59.921Z,96.88
2019-02-18T06:44:59.936Z,97.07
2019-02-18T06:45:59.950Z,96.59
2019-02-18T06:46:59.964Z,97.64
2019-02-18T06:47:59.981Z,96.78
2019-02-18T06:48:59.992Z,96.78
2019-02-18T06:50:00.014Z,97.64
2019-02-18T06:51:00.022Z,97.45
2019-02-18T06:52:00.037Z,97.35
2019-02-18T06:53:00.050Z,97.83
2019-02-18T06:54:00.064Z,97.64
2019-02-18T06:55:00.306Z,97.64
2019-02-18T06:56:00.120Z,97.54
2019-02-18T06:57:00.115Z,97.73
2019-02-18T06:58:00.125Z,97.45
2019-02-18T06:59:00.142Z,97.73
2019-02-18T07:00:00.226Z,97.35
2019-02-18T07:01:00.166Z,97.35
2019-02-18T07:02:00.185Z,97.83
2019-02-18T07:03:00.194Z,97.26
2019-02-18T07:04:00.211Z,97.26
2019-02-18T07:05:00.315Z,97.83
2019-02-18T07:06:00.240Z,96.78
2019-02-18T07:07:00.258Z,96.88
2019-02-18T07:08:00.275Z,97.02
2019-02-18T07:09:00.282Z,96.26
2019-02-18T07:10:00.300Z,96.69
2019-02-18T07:11:00.313Z,96.36
2019-02-18T07:12:00.335Z,96.31
2019-02-18T07:13:00.343Z,96.59
2019-02-18T07:14:00.358Z,96.69
2019-02-18T07:15:00.372Z,96.31
2019-02-18T07:16:00.391Z,96.97
2019-02-18T07:17:00.400Z,96.78
2019-02-18T07:18:00.414Z,96.88
2019-02-18T07:19:00.426Z,96.88
2019-02-18T07:20:00.446Z,97.16
2019-02-18T07:21:00.456Z,97.73
2019-02-18T07:22:00.473Z,97.54
2019-02-18T07:23:00.492Z,97.64
2019-02-18T07:24:00.502Z,97.54
2019-02-18T07:25:00.516Z,97.45
2019-02-18T07:26:00.533Z,97.64
2019-02-18T07:27:00.546Z,97.64
2019-02-18T07:28:00.565Z,97.45
2019-02-18T07:29:00.658Z,97.45
2019-02-18T07:30:00.587Z,97.64
2019-02-18T07:31:00.602Z,97.83
2019-02-18T07:32:00.621Z,96.97
2019-02-18T07:33:00.631Z,97.07
2019-02-18T07:34:00.646Z,97.07
2019-02-18T07:35:00.688Z,97.07
2019-02-18T07:36:00.672Z,97.64
2019-02-18T07:37:00.687Z,97.69
2019-02-18T07:38:00.714Z,97.69
2019-02-18T07:39:00.727Z,97.83
2019-02-18T07:40:01.910Z,97.31
2019-02-18T07:41:00.750Z,96.59
2019-02-18T07:42:00.770Z,96.88
2019-02-18T07:43:00.779Z,97.21
2019-02-18T07:44:00.791Z,97.07
2019-02-18T07:45:00.809Z,97.31
2019-02-18T07:46:00.821Z,97.12
2019-02-18T07:47:00.835Z,97.12
2019-02-18T07:48:00.850Z,97.12
2019-02-18T07:49:00.868Z,96.92
2019-02-18T07:50:00.885Z,97.02
2019-02-18T07:51:00.895Z,96.92
2019-02-18T07:52:00.912Z,97.02
2019-02-18T07:53:00.928Z,96.92
2019-02-18T07:54:00.938Z,96.45
2019-02-18T07:55:00.953Z,96.45
2019-02-18T07:56:00.967Z,96.45
2019-02-18T07:57:00.985Z,95.88
2019-02-18T07:58:01.654Z,96.36
2019-02-18T07:59:01.012Z,96.55
2019-02-18T08:00:01.029Z,96.64
2019-02-18T08:01:01.044Z,95.88
2019-02-18T08:02:01.059Z,95.79
2019-02-18T08:03:01.074Z,96.08
2019-02-18T08:04:01.087Z,95.88
2019-02-18T08:05:02.254Z,95.79
2019-02-18T08:06:01.116Z,95.69
2019-02-18T08:07:01.137Z,95.69
2019-02-18T08:08:01.152Z,96.17
2019-02-18T08:09:01.163Z,95.69
2019-02-18T08:10:11.539Z,95.60
2019-02-18T08:11:01.195Z,95.69
2019-02-18T08:12:01.209Z,95.69
2019-02-18T08:13:01.225Z,95.50
2019-02-18T08:14:01.238Z,95.69
2019-02-18T08:15:01.252Z,95.69
2019-02-18T08:16:01.271Z,95.46
2019-02-18T08:17:01.281Z,94.84
2019-02-18T08:18:01.364Z,94.60
2019-02-18T08:19:01.310Z,94.70
2019-02-18T08:20:01.334Z,94.13
2019-02-18T08:21:01.340Z,94.23
2019-02-18T08:22:01.366Z,94.51
2019-02-18T08:23:01.372Z,94.13
2019-02-18T08:24:01.402Z,93.84
2019-02-18T08:25:01.401Z,93.37
2019-02-18T08:26:01.417Z,93.18
2019-02-18T08:27:01.449Z,92.61
2019-02-18T08:28:01.450Z,93.08
2019-02-18T08:29:01.465Z,93.27
2019-02-18T08:30:01.482Z,92.99
2019-02-18T08:31:01.495Z,92.85
2019-02-18T08:32:01.508Z,92.28
2019-02-18T08:33:01.524Z,92.18
2019-02-18T08:34:01.540Z,92.66
2019-02-18T08:35:01.554Z,92.37
2019-02-18T08:36:01.572Z,92.09
2019-02-18T08:37:01.598Z,92.56
2019-02-18T08:38:01.602Z,92.28
2019-02-18T08:39:01.617Z,92.28
2019-02-18T08:40:01.631Z,92.37
2019-02-18T08:41:01.653Z,92.56
2019-02-18T08:42:01.671Z,92.47
2019-02-18T08:43:01.679Z,92.18
2019-02-18T08:44:01.693Z,92.47
2019-02-18T08:45:01.715Z,92.28
2019-02-18T08:46:01.723Z,92.37
2019-02-18T08:47:01.739Z,92.56
2019-02-18T08:48:01.755Z,91.89
2019-02-18T08:49:01.770Z,92.18
2019-02-18T08:50:01.786Z,91.89
2019-02-18T08:51:01.807Z,91.71
2019-02-18T08:52:01.820Z,91.42
2019-02-18T08:53:01.833Z,91.75
2019-02-18T08:54:01.857Z,91.66
2019-02-18T08:55:01.866Z,91.28
2019-02-18T08:56:01.880Z,91.28
2019-02-18T08:57:01.898Z,91.28
2019-02-18T08:58:01.929Z,91.09
2019-02-18T08:59:01.926Z,90.61
2019-02-18T09:00:01.943Z,90.80
2019-02-18T09:01:02.833Z,91.09
2019-02-18T09:02:01.975Z,90.71
2019-02-18T09:03:01.992Z,90.33
2019-02-18T09:04:02.008Z,90.42
2019-02-18T09:05:02.031Z,90.33
2019-02-18T09:06:02.036Z,90.28
2019-02-18T09:07:02.060Z,90.19
2019-02-18T09:08:02.069Z,89.90
2019-02-18T09:09:02.085Z,89.90
2019-02-18T09:10:02.100Z,89.80
2019-02-18T09:11:02.118Z,89.61
2019-02-18T09:12:02.141Z,89.61
2019-02-18T09:13:02.155Z,89.42
2019-02-18T09:14:02.167Z,89.33
2019-02-18T09:15:02.182Z,89.42
2019-02-18T09:16:02.198Z,88.85
2019-02-18T09:17:02.221Z,88.85
2019-02-18T09:18:02.231Z,88.57
2019-02-18T09:19:02.248Z,88.61
2019-02-18T09:20:02.261Z,88.13
2019-02-18T09:21:02.282Z,88.13
2019-02-18T09:22:02.294Z,87.76
2019-02-18T09:23:02.311Z,88.23
2019-02-18T09:24:02.333Z,87.09
2019-02-18T09:25:02.349Z,86.28
2019-02-18T09:26:02.448Z,86.47
2019-02-18T09:27:02.375Z,85.52
2019-02-18T09:28:02.392Z,85.42
2019-02-18T09:29:02.410Z,85.33
2019-02-18T09:30:02.425Z,85.80
2019-02-18T09:31:02.448Z,85.80
2019-02-18T09:32:02.461Z,85.14
2019-02-18T09:33:02.480Z,84.19
2019-02-18T09:34:02.494Z,84.19
2019-02-18T09:35:02.515Z,83.75
2019-02-18T09:36:02.537Z,83.75
2019-02-18T09:37:02.543Z,83.28
2019-02-18T09:38:02.561Z,82.42
2019-02-18T09:39:02.576Z,81.85
2019-02-18T09:40:02.595Z,81.47
2019-02-18T09:41:02.610Z,80.42
2019-02-18T09:42:02.631Z,79.80
2019-02-18T09:43:02.644Z,79.22
2019-02-18T09:44:02.670Z,79.32
2019-02-18T09:45:02.678Z,78.94
2019-02-18T09:46:02.709Z,79.13
2019-02-18T09:47:02.716Z,78.46
2019-02-18T09:48:02.733Z,78.56
2019-02-18T09:49:02.750Z,77.98
2019-02-18T09:50:02.865Z,77.89
2019-02-18T09:51:02.790Z,77.22
2019-02-18T09:52:02.800Z,76.84
2019-02-18T09:53:02.834Z,76.65
2019-02-18T09:54:02.837Z,76.65
2019-02-18T09:55:02.853Z,76.03
2019-02-18T09:56:02.879Z,74.98
2019-02-18T09:57:02.891Z,74.31
2019-02-18T09:58:02.909Z,73.55
2019-02-18T09:59:02.928Z,73.65
2019-02-18T10:00:02.942Z,73.26
2019-02-18T10:01:02.961Z,72.50
2019-02-18T10:02:02.978Z,72.60
2019-02-18T10:03:02.992Z,72.12
2019-02-18T10:04:03.009Z,71.93
2019-02-18T10:05:03.030Z,71.30
2019-02-18T10:06:03.055Z,70.44
2019-02-18T10:07:03.068Z,70.25
2019-02-18T10:08:03.084Z,70.25
2019-02-18T10:09:03.101Z,70.25
2019-02-18T10:10:04.678Z,69.29
2019-02-18T10:11:03.137Z,69.58
2019-02-18T10:12:03.155Z,69.48
2019-02-18T10:13:03.171Z,69.29
2019-02-18T10:14:03.190Z,69.20
2019-02-18T10:15:03.209Z,69.01
2019-02-18T10:16:03.226Z,67.80
2019-02-18T10:17:03.247Z,67.80
2019-02-18T10:18:03.261Z,67.33
2019-02-18T10:19:03.279Z,66.75
2019-02-18T10:20:03.301Z,66.75
2019-02-18T10:21:03.321Z,66.94
2019-02-18T10:22:03.336Z,66.38
2019-02-18T10:23:03.355Z,66.66
2019-02-18T10:24:03.380Z,66.38
2019-02-18T10:25:03.396Z,66.18
2019-02-18T10:26:03.419Z,65.99
2019-02-18T10:27:03.429Z,65.89
2019-02-18T10:28:03.453Z,65.55
2019-02-18T10:29:03.467Z,65.74
2019-02-18T10:30:03.485Z,65.55
2019-02-18T10:31:03.506Z,65.83
2019-02-18T10:32:03.524Z,65.26
2019-02-18T10:33:03.542Z,64.88
2019-02-18T10:34:03.562Z,64.88
2019-02-18T10:35:03.581Z,64.78
2019-02-18T10:36:03.597Z,64.12
2019-02-18T10:37:03.672Z,64.02
2019-02-18T10:38:03.632Z,63.92
2019-02-18T10:39:03.651Z,63.67
2019-02-18T10:40:03.676Z,63.67
2019-02-18T10:41:06.833Z,63.20
2019-02-18T10:42:03.707Z,63.57
2019-02-18T10:43:03.730Z,63.20
2019-02-18T10:44:03.750Z,63.39
2019-02-18T10:45:03.772Z,63.29
2019-02-18T10:46:03.785Z,63.29
2019-02-18T10:47:04.204Z,62.91
2019-02-18T10:48:03.830Z,63.00
2019-02-18T10:49:03.844Z,63.10
2019-02-18T10:50:04.163Z,63.00
2019-02-18T10:51:03.882Z,62.34
2019-02-18T10:52:03.904Z,62.05
2019-02-18T10:53:04.170Z,61.95
2019-02-18T10:54:03.939Z,62.05
2019-02-18T10:55:03.959Z,61.86
2019-02-18T10:56:03.974Z,61.95
2019-02-18T10:57:04.000Z,61.69
2019-02-18T10:58:04.016Z,61.32
2019-02-18T10:59:04.035Z,61.22
2019-02-18T11:00:04.061Z,61.32
2019-02-18T11:01:04.074Z,61.13
2019-02-18T11:02:04.094Z,61.22
2019-02-18T11:03:04.112Z,61.13
2019-02-18T11:04:04.131Z,61.22
2019-02-18T11:05:04.151Z,61.22
2019-02-18T11:06:04.168Z,61.13
2019-02-18T11:07:04.192Z,60.74
2019-02-18T11:08:04.210Z,60.84
2019-02-18T11:09:04.232Z,60.96
2019-02-18T11:10:04.248Z,60.84
2019-02-18T11:11:04.268Z,60.36
2019-02-18T11:12:04.287Z,60.77
2019-02-18T11:13:04.306Z,60.30
2019-02-18T11:14:04.327Z,60.20
2019-02-18T11:15:04.343Z,59.72
2019-02-18T11:16:04.366Z,59.53
2019-02-18T11:17:04.383Z,59.72
2019-02-18T11:18:04.403Z,59.72
2019-02-18T11:19:04.423Z,59.53
2019-02-18T11:20:04.441Z,58.67
2019-02-18T11:21:04.466Z,58.38
2019-02-18T11:22:04.483Z,58.29
2019-02-18T11:23:04.505Z,58.10
2019-02-18T11:24:04.528Z,57.71
2019-02-18T11:25:04.550Z,57.53
2019-02-18T11:26:04.560Z,57.65
2019-02-18T11:27:04.581Z,57.62
2019-02-18T11:28:04.599Z,57.46
2019-02-18T11:29:04.619Z,57.65
2019-02-18T11:30:04.640Z,57.36
2019-02-18T11:31:04.658Z,57.36
2019-02-18T11:32:05.085Z,57.55
2019-02-18T11:33:04.700Z,57.55
2019-02-18T11:34:04.717Z,57.65
2019-02-18T11:35:04.743Z,57.46
2019-02-18T11:36:04.758Z,57.75
2019-02-18T11:37:04.780Z,57.65
2019-02-18T11:38:04.809Z,57.17
2019-02-18T11:39:04.820Z,56.50
2019-02-18T11:40:04.837Z,56.40
2019-02-18T11:41:04.858Z,56.21
2019-02-18T11:42:04.880Z,56.31
2019-02-18T11:43:04.897Z,56.79
2019-02-18T11:44:04.920Z,56.31
2019-02-18T11:45:04.937Z,56.60
2019-02-18T11:46:04.964Z,56.82
2019-02-18T11:47:04.983Z,56.34
2019-02-18T11:48:04.998Z,55.67
2019-02-18T11:49:05.017Z,55.29
2019-02-18T11:50:05.049Z,55.31
2019-02-18T11:51:05.057Z,53.88
2019-02-18T11:52:05.080Z,53.78
2019-02-18T11:53:05.098Z,53.78
2019-02-18T11:54:05.118Z,53.97
2019-02-18T11:55:05.142Z,54.36
2019-02-18T11:56:05.162Z,54.16
2019-02-18T11:57:05.182Z,53.78
2019-02-18T11:58:05.207Z,54.04
2019-02-18T11:59:05.224Z,54.14
2019-02-18T12:00:05.349Z,54.23
2019-02-18T12:01:05.271Z,53.66
2019-02-18T12:02:05.287Z,53.85
2019-02-18T12:03:11.609Z,53.66
2019-02-18T12:04:05.327Z,53.75
2019-02-18T12:05:05.348Z,53.85
2019-02-18T12:06:05.366Z,54.04
2019-02-18T12:07:05.387Z,53.66
2019-02-18T12:08:05.408Z,53.85
2019-02-18T12:09:05.433Z,53.94
2019-02-18T12:10:05.507Z,53.47
2019-02-18T12:11:05.472Z,53.85
2019-02-18T12:12:05.494Z,53.75
2019-02-18T12:13:05.514Z,53.47
2019-02-18T12:14:06.088Z,53.56
2019-02-18T12:15:05.555Z,53.66
2019-02-18T12:16:05.575Z,53.75
2019-02-18T12:17:05.600Z,53.47
2019-02-18T12:18:05.614Z,53.85
2019-02-18T12:19:05.634Z,54.04
2019-02-18T12:20:05.655Z,53.56
2019-02-18T12:21:06.078Z,53.69
2019-02-18T12:22:05.695Z,53.85
2019-02-18T12:23:05.717Z,53.49
2019-02-18T12:24:06.092Z,55.12
2019-02-18T12:25:05.760Z,54.55
2019-02-18T12:26:05.783Z,53.97
2019-02-18T12:27:06.049Z,53.40
2019-02-18T12:28:05.820Z,53.59
2019-02-18T12:29:05.842Z,53.78
2019-02-18T12:30:05.866Z,53.59
2019-02-18T12:31:05.884Z,53.49
2019-02-18T12:32:05.910Z,53.69
2019-02-18T12:33:05.922Z,53.11
2019-02-18T12:34:05.964Z,53.20
2019-02-18T12:35:05.965Z,53.20
2019-02-18T12:36:05.989Z,53.11
2019-02-18T12:37:06.007Z,53.11
2019-02-18T12:38:06.027Z,53.49
2019-02-18T12:39:06.047Z,52.44
2019-02-18T12:40:06.072Z,52.54
2019-02-18T12:41:06.137Z,52.83
2019-02-18T12:42:06.111Z,53.49
2019-02-18T12:43:06.132Z,53.20
2019-02-18T12:44:06.150Z,53.30
2019-02-18T12:45:06.171Z,53.49
2019-02-18T12:46:15.482Z,53.02
2019-02-18T12:47:06.209Z,52.95
2019-02-18T12:48:06.231Z,52.63
2019-02-18T12:49:06.254Z,52.54
2019-02-18T12:50:06.274Z,52.56
2019-02-18T12:51:06.294Z,52.47
2019-02-18T12:52:06.314Z,52.28
2019-02-18T12:53:06.333Z,51.99